Time;durP1;ratioP1;P1;durP2;ratioP2;P2;SDS_P1;SDS_P2;PMS_P1;PMS_P2;Temp;Humidity;BMP_temperature;BMP_pressure;BME280_temperature;BME280_humidity;BME280_pressure;Samples;Min_cycle;Max_cycle;Signal;HPM_P1;HPM_P2
2022/05/15 00:02:09;;;;;;;6.37;4.43;;;13.30;1.00;;;;;;6178046;28;20706;-55
2022/05/15 00:05:12;;;;;;;5.23;4.27;;;13.20;1.00;;;;;;6184764;28;20291;-55
2022/05/15 00:08:26;;;;;;;4.80;4.50;;;13.10;1.00;;;;;;6189471;28;20244;-55
2022/05/15 00:11:29;;;;;;;6.17;4.83;;;13.10;1.00;;;;;;6184200;28;20617;-54
2022/05/15 00:14:42;;;;;;;5.20;4.70;;;13.00;1.00;;;;;;6185865;28;20266;-55
2022/05/15 00:17:45;;;;;;;5.70;4.63;;;13.00;1.00;;;;;;6171625;28;20288;-53
2022/05/15 00:20:49;;;;;;;4.67;4.27;;;13.00;1.00;;;;;;6161295;28;20491;-55
2022/05/15 00:23:52;;;;;;;4.53;4.33;;;12.90;1.00;;;;;;6162816;28;20245;-55
2022/05/15 00:26:55;;;;;;;6.13;4.73;;;12.90;1.00;;;;;;6159302;28;20331;-55
2022/05/15 00:29:59;;;;;;;4.47;4.07;;;12.80;1.00;;;;;;6161785;28;20653;-55
2022/05/15 00:33:05;;;;;;;5.07;4.60;;;12.80;1.00;;;;;;6170167;28;20319;-54
2022/05/15 00:36:07;;;;;;;4.67;4.30;;;12.70;1.00;;;;;;6192047;28;20312;-55
2022/05/15 00:39:11;;;;;;;4.70;4.40;;;12.70;1.00;;;;;;6184975;28;20248;-55
2022/05/15 00:42:13;;;;;;;6.00;4.53;;;12.60;1.00;;;;;;6182107;28;20587;-55
2022/05/15 00:45:21;;;;;;;4.60;4.30;;;12.60;1.00;;;;;;6162795;28;20370;-55
2022/05/15 00:48:24;;;;;;;5.20;4.90;;;12.50;1.00;;;;;;6180719;28;20502;-55
2022/05/15 00:51:35;;;;;;;5.30;4.80;;;12.50;1.00;;;;;;6183048;28;20367;-55
2022/05/15 00:54:43;;;;;;;5.20;4.90;;;12.40;1.00;;;;;;6185035;28;20236;-55
2022/05/15 00:57:49;;;;;;;5.27;4.87;;;12.40;1.00;;;;;;6182309;28;20736;-54
2022/05/15 01:00:54;;;;;;;5.30;4.90;;;12.30;1.00;;;;;;6174873;28;20244;-55
2022/05/15 01:03:56;;;;;;;4.70;4.40;;;12.30;1.00;;;;;;6181314;28;20342;-56
2022/05/15 01:07:01;;;;;;;5.53;5.03;;;12.30;1.00;;;;;;6190892;28;20244;-55
2022/05/15 01:10:05;;;;;;;7.37;5.30;;;12.20;1.00;;;;;;6177864;28;20383;-55
2022/05/15 01:13:10;;;;;;;5.50;5.10;;;12.20;1.00;;;;;;6179965;28;20323;-55
2022/05/15 01:16:19;;;;;;;5.50;5.20;;;12.20;1.00;;;;;;6160122;28;20380;-55
2022/05/15 01:19:40;;;;;;;5.23;4.70;;;12.10;1.00;;;;;;6159277;28;20628;-56
2022/05/15 01:22:45;;;;;;;8.50;5.77;;;12.10;1.00;;;;;;6160783;28;20367;-55
2022/05/15 01:25:48;;;;;;;5.10;4.80;;;12.00;1.00;;;;;;6157443;28;20229;-53
2022/05/15 01:28:51;;;;;;;5.43;4.97;;;12.00;1.00;;;;;;6174641;28;20326;-54
2022/05/15 01:31:54;;;;;;;7.63;6.13;;;12.00;1.00;;;;;;6165350;28;20318;-54
2022/05/15 01:34:57;;;;;;;6.07;5.13;;;12.00;1.00;;;;;;6189872;28;20641;-55
2022/05/15 01:38:11;;;;;;;7.53;4.80;;;11.90;1.00;;;;;;6206541;28;20249;-54
2022/05/15 01:41:15;;;;;;;6.00;5.40;;;12.00;1.00;;;;;;6180417;28;20244;-55
2022/05/15 01:44:18;;;;;;;5.50;4.87;;;12.00;1.00;;;;;;6179811;28;20258;-54
2022/05/15 01:47:21;;;;;;;5.20;4.70;;;12.00;1.00;;;;;;6180514;28;20243;-55
2022/05/15 01:50:24;;;;;;;4.97;4.57;;;12.00;1.00;;;;;;6158732;28;20299;-55
2022/05/15 01:53:28;;;;;;;4.70;4.40;;;12.00;1.00;;;;;;6159007;28;20331;-55
2022/05/15 01:56:31;;;;;;;9.13;4.70;;;12.00;1.00;;;;;;6158055;28;20319;-55
2022/05/15 01:59:36;;;;;;;5.33;4.77;;;11.90;1.00;;;;;;6170836;28;20294;-54
2022/05/15 02:02:40;;;;;;;7.13;4.33;;;12.00;1.00;;;;;;6183084;28;20249;-55
2022/05/15 02:05:43;;;;;;;4.20;3.90;;;11.90;1.00;;;;;;6183263;28;20327;-58
2022/05/15 02:08:48;;;;;;;7.10;4.10;;;12.10;1.00;;;;;;6179142;28;20250;-54
2022/05/15 02:11:50;;;;;;;3.83;3.50;;;12.00;1.00;;;;;;6153770;28;20228;-54
2022/05/15 02:14:53;;;;;;;4.13;3.83;;;12.00;1.00;;;;;;6165953;28;20723;-54
2022/05/15 02:17:56;;;;;;;3.63;3.40;;;12.00;1.00;;;;;;6182028;28;20247;-54
2022/05/15 02:20:59;;;;;;;5.80;3.80;;;12.00;1.00;;;;;;6169917;28;20939;-55
2022/05/15 02:24:08;;;;;;;4.07;3.77;;;12.00;1.00;;;;;;6174732;28;20231;-55
2022/05/15 02:27:11;;;;;;;4.43;3.40;;;12.00;1.00;;;;;;6179875;28;20254;-55
2022/05/15 02:30:14;;;;;;;3.90;3.53;;;12.00;1.00;;;;;;6170459;28;20261;-54
2022/05/15 02:33:18;;;;;;;5.57;3.40;;;12.00;1.00;;;;;;6167160;28;20646;-55
2022/05/15 02:36:23;;;;;;;3.63;3.47;;;12.00;1.00;;;;;;6190313;28;20250;-55
2022/05/15 02:39:27;;;;;;;4.20;3.30;;;12.00;1.00;;;;;;6176593;28;20295;-55
2022/05/15 02:42:33;;;;;;;4.33;3.53;;;12.00;1.00;;;;;;6172898;28;20399;-54
2022/05/15 02:45:37;;;;;;;4.10;3.70;;;12.00;1.00;;;;;;6158455;28;20383;-55
2022/05/15 02:52:08;;;;;;;3.90;3.60;;;12.00;1.00;;;;;;6158275;28;20320;-54
2022/05/15 02:55:13;;;;;;;4.30;3.20;;;11.90;1.00;;;;;;6157613;28;20311;-54
2022/05/15 02:58:15;;;;;;;3.50;3.20;;;11.90;1.00;;;;;;6156326;28;20884;-55
2022/05/15 03:01:19;;;;;;;3.43;3.30;;;11.90;1.00;;;;;;6157383;28;20240;-55
2022/05/15 03:04:21;;;;;;;3.73;3.40;;;11.80;1.00;;;;;;6177899;28;20231;-54
2022/05/15 03:07:24;;;;;;;4.17;3.73;;;11.80;1.00;;;;;;6185503;28;20323;-54
2022/05/15 03:10:29;;;;;;;4.90;3.80;;;11.70;1.00;;;;;;6183780;28;20228;-55
2022/05/15 03:13:32;;;;;;;4.27;3.90;;;11.80;1.00;;;;;;6183294;28;20244;-55
2022/05/15 03:16:35;;;;;;;4.87;4.23;;;11.70;1.00;;;;;;6186668;28;20289;-46
2022/05/15 03:19:38;;;;;;;5.80;4.00;;;11.70;1.00;;;;;;6185517;28;20258;-55
2022/05/15 03:22:40;;;;;;;4.87;4.37;;;11.60;1.00;;;;;;6173437;28;20529;-54
2022/05/15 03:25:45;;;;;;;4.83;4.43;;;11.70;1.00;;;;;;6164652;28;20254;-55
2022/05/15 03:28:48;;;;;;;7.17;4.27;;;11.70;1.00;;;;;;6185800;28;20386;-55
2022/05/15 03:31:51;;;;;;;5.93;4.10;;;11.70;1.00;;;;;;6171064;28;20314;-54
2022/05/15 03:34:54;;;;;;;4.33;4.00;;;11.70;1.00;;;;;;6204220;28;20334;-55
2022/05/15 03:37:56;;;;;;;6.23;4.33;;;11.80;1.00;;;;;;6182808;28;20410;-55
2022/05/15 03:41:00;;;;;;;4.03;3.73;;;11.80;1.00;;;;;;6172731;28;20331;-55
2022/05/15 03:44:07;;;;;;;4.77;4.10;;;11.80;1.00;;;;;;6194802;28;20321;-56
2022/05/15 03:47:10;;;;;;;8.03;4.30;;;11.80;1.00;;;;;;6190816;28;20334;-55
2022/05/15 03:50:14;;;;;;;6.77;4.57;;;11.80;1.00;;;;;;6189601;28;20712;-54
2022/05/15 03:53:18;;;;;;;4.80;4.27;;;11.80;1.00;;;;;;6190234;28;20494;-55
2022/05/15 03:56:49;;;;;;;5.50;4.13;;;11.80;1.00;;;;;;6193521;28;20649;-55
2022/05/15 03:59:46;;;;;;;4.50;4.23;;;11.90;1.00;;;;;;6185619;28;20232;-55
2022/05/15 04:02:48;;;;;;;4.93;4.53;;;11.90;1.00;;;;;;6185330;28;20593;-54
2022/05/15 04:05:51;;;;;;;6.40;4.90;;;11.90;1.00;;;;;;6183081;28;20630;-55
2022/05/15 04:08:54;;;;;;;5.00;4.23;;;11.90;1.00;;;;;;6191319;28;20695;-55
2022/05/15 04:11:58;;;;;;;4.73;4.30;;;11.90;1.00;;;;;;6187303;28;20231;-54
2022/05/15 04:15:02;;;;;;;5.60;4.50;;;11.90;1.00;;;;;;6189146;28;20787;-53
2022/05/15 04:18:06;;;;;;;4.13;3.83;;;12.00;1.00;;;;;;6187545;28;20288;-54
2022/05/15 04:21:10;;;;;;;5.37;3.93;;;12.00;1.00;;;;;;6188455;28;20262;-55
2022/05/15 04:24:14;;;;;;;7.03;4.40;;;12.00;1.00;;;;;;6187385;28;20246;-54
2022/05/15 04:27:18;;;;;;;5.83;4.00;;;12.10;1.00;;;;;;6185887;28;20773;-55
2022/05/15 04:30:24;;;;;;;7.30;4.20;;;12.00;1.00;;;;;;6181301;28;20590;-55
2022/05/15 04:33:27;;;;;;;4.97;3.83;;;12.10;1.00;;;;;;6186973;28;20232;-55
2022/05/15 04:36:31;;;;;;;4.10;3.40;;;12.10;1.00;;;;;;6197629;28;20313;-55
2022/05/15 04:39:34;;;;;;;3.80;3.50;;;12.20;1.00;;;;;;6194739;28;20319;-55
2022/05/15 04:42:38;;;;;;;4.80;3.90;;;12.20;1.00;;;;;;6192629;28;20398;-55
2022/05/15 04:45:41;;;;;;;5.10;3.97;;;12.40;1.00;;;;;;6189020;28;20248;-55
2022/05/15 04:48:44;;;;;;;9.10;4.03;;;12.40;1.00;;;;;;6187378;28;20302;-55
2022/05/15 04:51:47;;;;;;;7.83;4.07;;;12.50;1.00;;;;;;6194304;28;20779;-55
2022/05/15 04:54:50;;;;;;;5.03;3.63;;;12.60;1.00;;;;;;6174710;28;20264;-54
2022/05/15 04:57:54;;;;;;;4.77;3.60;;;12.80;1.00;;;;;;6176325;28;20486;-54
2022/05/15 05:00:57;;;;;;;3.83;3.30;;;13.00;1.00;;;;;;6187026;28;20239;-55
2022/05/15 05:04:01;;;;;;;5.43;3.90;;;13.20;1.00;;;;;;6182613;28;20236;-54
2022/05/15 05:07:04;;;;;;;5.43;3.60;;;13.30;1.00;;;;;;6191000;28;20247;-55
2022/05/15 05:10:09;;;;;;;5.73;3.37;;;13.50;1.00;;;;;;6190610;28;20319;-55
2022/05/15 05:13:13;;;;;;;3.50;3.30;;;13.70;1.00;;;;;;6187188;28;20231;-56
2022/05/15 05:16:16;;;;;;;3.63;2.90;;;13.90;1.00;;;;;;6190628;28;20248;-55
2022/05/15 05:19:19;;;;;;;3.60;3.13;;;14.10;1.00;;;;;;6169908;28;20689;-55
2022/05/15 05:22:22;;;;;;;3.53;3.00;;;14.30;1.00;;;;;;6181008;28;20551;-55
2022/05/15 05:25:25;;;;;;;4.73;3.30;;;14.60;1.00;;;;;;6177163;28;20305;-55
2022/05/15 05:28:29;;;;;;;4.63;3.00;;;14.70;1.00;;;;;;6179513;28;20404;-55
2022/05/15 05:31:32;;;;;;;3.30;2.70;;;14.90;1.00;;;;;;6177244;28;20289;-55
2022/05/15 05:34:35;;;;;;;3.20;2.93;;;15.20;1.00;;;;;;6190788;28;20238;-56
2022/05/15 05:37:39;;;;;;;3.07;2.77;;;15.40;1.00;;;;;;6188913;28;20386;-55
2022/05/15 05:40:41;;;;;;;3.83;3.00;;;15.70;1.00;;;;;;6182615;28;20747;-55
2022/05/15 05:43:45;;;;;;;5.23;3.17;;;15.70;1.00;;;;;;6182096;28;20258;-55
2022/05/15 05:46:48;;;;;;;6.67;2.67;;;15.90;1.00;;;;;;6190995;28;20271;-55
2022/05/15 05:49:51;;;;;;;2.97;2.67;;;16.00;1.00;;;;;;6190549;28;20724;-54
2022/05/15 05:52:55;;;;;;;3.57;2.70;;;16.10;1.00;;;;;;6185007;28;20251;-54
2022/05/15 05:55:59;;;;;;;5.10;3.27;;;16.30;1.00;;;;;;6185592;28;20283;-54
2022/05/15 05:59:04;;;;;;;3.37;3.03;;;16.60;1.00;;;;;;6179091;28;20332;-54
2022/05/15 06:02:07;;;;;;;4.33;2.50;;;16.80;1.00;;;;;;6191592;28;20847;-55
2022/05/15 06:05:11;;;;;;;2.83;2.63;;;17.00;1.00;;;;;;6192491;28;20231;-56
2022/05/15 06:08:14;;;;;;;2.87;2.73;;;17.20;1.00;;;;;;6179382;28;20236;-55
2022/05/15 06:11:16;;;;;;;3.93;2.90;;;17.30;1.00;;;;;;6178191;28;20381;-54
2022/05/15 06:14:28;;;;;;;6.17;3.00;;;17.40;1.00;;;;;;6188669;28;20682;-55
2022/05/15 06:17:32;;;;;;;3.10;2.90;;;17.40;1.00;;;;;;6178098;28;20248;-55
2022/05/15 06:20:35;;;;;;;3.20;3.00;;;17.60;1.00;;;;;;6187577;28;20239;-56
2022/05/15 06:23:38;;;;;;;7.00;3.33;;;17.70;1.00;;;;;;6190213;28;20327;-56
2022/05/15 06:26:41;;;;;;;5.80;2.90;;;17.90;1.00;;;;;;6180534;28;20248;-54
2022/05/15 06:29:45;;;;;;;5.47;3.10;;;17.90;1.00;;;;;;6185713;28;20760;-56
2022/05/15 06:32:48;;;;;;;4.27;3.30;;;17.90;1.00;;;;;;6175938;28;20235;-55
2022/05/15 06:35:51;;;;;;;3.20;2.60;;;18.10;1.00;;;;;;6187488;28;20267;-55
2022/05/15 06:38:55;;;;;;;3.37;2.77;;;18.30;1.00;;;;;;6193999;28;20314;-54
2022/05/15 06:42:08;;;;;;;3.90;2.80;;;18.30;1.00;;;;;;6174478;28;20237;-54
2022/05/15 06:45:14;;;;;;;3.27;2.80;;;18.40;1.00;;;;;;6182720;28;20369;-55
2022/05/15 06:48:17;;;;;;;3.63;2.67;;;18.60;1.00;;;;;;6187616;28;20286;-55
2022/05/15 06:51:21;;;;;;;3.40;2.43;;;18.80;1.00;;;;;;6179704;28;20693;-56
2022/05/15 06:54:23;;;;;;;3.10;2.57;;;19.00;1.00;;;;;;6180059;28;20232;-56
2022/05/15 06:57:29;;;;;;;3.03;2.83;;;18.90;1.00;;;;;;6193166;28;20240;-53
2022/05/15 07:00:33;;;;;;;3.80;3.00;;;18.70;1.00;;;;;;6193186;28;20310;-55
2022/05/15 07:03:36;;;;;;;3.10;2.90;;;18.70;1.00;;;;;;6180526;28;20805;-56
2022/05/15 07:06:39;;;;;;;3.73;2.80;;;18.70;1.00;;;;;;6183219;28;20249;-54
2022/05/15 07:09:42;;;;;;;3.00;2.80;;;18.50;1.00;;;;;;6178195;28;20869;-55
2022/05/15 07:12:44;;;;;;;2.57;2.33;;;18.20;1.00;;;;;;6182943;28;20244;-55
2022/05/15 07:15:48;;;;;;;2.73;2.53;;;18.20;1.00;;;;;;6184952;28;20239;-58
2022/05/15 07:18:51;;;;;;;2.80;2.60;;;18.10;1.00;;;;;;6175109;28;20236;-56
2022/05/15 07:21:54;;;;;;;3.93;3.23;;;18.10;1.00;;;;;;6179909;28;20371;-54
2022/05/15 07:24:57;;;;;;;2.77;2.67;;;17.80;1.00;;;;;;6178173;28;20283;-56
2022/05/15 07:28:00;;;;;;;3.43;2.97;;;17.60;1.00;;;;;;6176588;28;20776;-55
2022/05/15 07:31:04;;;;;;;4.20;2.83;;;17.70;1.00;;;;;;6177019;28;20228;-56
2022/05/15 07:34:07;;;;;;;5.00;2.93;;;17.60;1.00;;;;;;6178174;28;20256;-55
2022/05/15 07:37:16;;;;;;;7.50;2.97;;;17.60;1.00;;;;;;6183615;28;20247;-55
2022/05/15 07:40:19;;;;;;;2.77;2.50;;;17.50;1.00;;;;;;6176210;28;20773;-56
2022/05/15 07:43:22;;;;;;;3.37;2.67;;;17.40;1.00;;;;;;6179536;28;20236;-55
2022/05/15 07:46:26;;;;;;;6.03;3.30;;;17.40;1.00;;;;;;6186092;28;20246;-57
2022/05/15 07:49:31;;;;;;;2.90;2.70;;;17.40;1.00;;;;;;6178455;28;20240;-55
2022/05/15 07:52:34;;;;;;;3.90;3.07;;;17.40;1.00;;;;;;6180455;28;20297;-56
2022/05/15 07:55:37;;;;;;;3.57;3.00;;;17.30;1.00;;;;;;6189558;28;20382;-55
2022/05/15 07:58:40;;;;;;;4.03;2.93;;;17.20;1.00;;;;;;6177503;28;20338;-56
2022/05/15 08:01:44;;;;;;;6.50;2.50;;;17.20;1.00;;;;;;6186684;28;20860;-56
2022/05/15 08:08:10;;;;;;;2.70;2.53;;;17.10;1.00;;;;;;6182617;28;20374;-54
2022/05/15 08:11:13;;;;;;;2.60;2.40;;;17.20;1.00;;;;;;6187443;28;20367;-55
2022/05/15 08:14:16;;;;;;;3.20;2.90;;;17.30;1.00;;;;;;6188502;28;20848;-54
2022/05/15 08:17:20;;;;;;;2.17;2.07;;;17.50;1.00;;;;;;6180897;28;20255;-56
2022/05/15 08:23:47;;;;;;;3.77;2.10;;;17.20;1.00;;;;;;6186747;28;20248;-54
2022/05/15 08:26:50;;;;;;;3.10;2.80;;;17.10;1.00;;;;;;6182746;28;20366;-54
2022/05/15 08:29:53;;;;;;;2.73;2.17;;;17.20;1.00;;;;;;6194085;28;20298;-56
2022/05/15 08:32:57;;;;;;;2.93;2.40;;;17.30;1.00;;;;;;6186478;28;20393;-54
2022/05/15 08:36:03;;;;;;;2.83;2.60;;;17.30;1.00;;;;;;6179373;28;20326;-55
2022/05/15 08:39:06;;;;;;;2.60;2.50;;;17.40;1.00;;;;;;6192312;28;20323;-56
2022/05/15 08:42:22;;;;;;;2.57;2.33;;;17.40;1.00;;;;;;6178560;28;20659;-55
2022/05/15 08:45:28;;;;;;;2.00;1.90;;;17.60;1.00;;;;;;6185488;28;20463;-56
2022/05/15 08:48:43;;;;;;;2.80;2.60;;;17.80;1.00;;;;;;6182931;28;20233;-54
2022/05/15 08:51:56;;;;;;;2.30;2.20;;;17.80;1.00;;;;;;6185286;28;20310;-55
2022/05/15 08:55:06;;;;;;;4.00;2.57;;;18.00;1.00;;;;;;6188446;28;20750;-55
2022/05/15 08:58:12;;;;;;;2.87;2.43;;;18.10;1.00;;;;;;6188078;28;20351;-56
2022/05/15 09:01:17;;;;;;;4.97;2.40;;;18.30;1.00;;;;;;6187430;28;20326;-55
2022/05/15 09:04:23;;;;;;;2.43;2.33;;;18.20;1.00;;;;;;6182555;28;20362;-56
2022/05/15 09:07:42;;;;;;;3.13;2.40;;;18.40;1.00;;;;;;6184143;28;20246;-55
2022/05/15 09:10:51;;;;;;;4.43;2.53;;;18.60;1.00;;;;;;6186171;28;20683;-56
2022/05/15 09:13:59;;;;;;;2.53;2.30;;;18.70;1.00;;;;;;6180496;28;20570;-54
2022/05/15 09:17:15;;;;;;;2.37;2.27;;;18.80;1.00;;;;;;6181555;28;20315;-54
2022/05/15 09:20:28;;;;;;;2.70;2.50;;;18.70;1.00;;;;;;6191606;28;20232;-54
2022/05/15 09:23:34;;;;;;;2.20;2.03;;;18.70;1.00;;;;;;6190865;28;20259;-55
2022/05/15 09:26:44;;;;;;;6.53;2.50;;;18.70;1.00;;;;;;6179725;28;21136;-56
2022/05/15 09:29:53;;;;;;;2.50;2.30;;;18.80;1.00;;;;;;6193947;28;20259;-56
2022/05/15 09:32:57;;;;;;;2.50;2.30;;;19.00;1.00;;;;;;6183735;28;20270;-55
2022/05/15 09:36:23;;;;;;;2.50;2.30;;;19.10;1.00;;;;;;6181495;28;20315;-55
2022/05/15 09:39:28;;;;;;;2.60;2.40;;;19.20;1.00;;;;;;6191520;28;21267;-55
2022/05/15 09:45:57;;;;;;;2.80;2.00;;;19.10;1.00;;;;;;6185381;28;20250;-54
2022/05/15 09:49:05;;;;;;;2.53;2.43;;;19.10;1.00;;;;;;6181728;28;20332;-54
2022/05/15 09:52:12;;;;;;;3.40;2.27;;;19.10;1.00;;;;;;6176757;28;20283;-56
2022/05/15 09:55:26;;;;;;;2.50;2.30;;;19.20;1.00;;;;;;6187071;28;20918;-55
2022/05/15 09:58:41;;;;;;;2.87;2.60;;;19.20;1.00;;;;;;6177889;28;20250;-54
2022/05/15 10:01:50;;;;;;;2.70;2.10;;;19.10;1.00;;;;;;6182475;28;20287;-55
2022/05/15 10:04:56;;;;;;;2.07;1.97;;;19.20;1.00;;;;;;6176576;28;20326;-56
2022/05/15 10:08:03;;;;;;;2.57;2.20;;;19.00;1.00;;;;;;6190031;28;20326;-54
2022/05/15 10:11:11;;;;;;;5.40;2.20;;;18.90;1.00;;;;;;6181490;28;20244;-54
2022/05/15 10:14:24;;;;;;;2.30;2.07;;;19.00;1.00;;;;;;6181351;28;20290;-54
2022/05/15 10:17:28;;;;;;;2.13;2.00;;;19.10;1.00;;;;;;6186115;28;20233;-55
2022/05/15 10:20:35;;;;;;;1.97;1.80;;;19.30;1.00;;;;;;6185685;28;20243;-59
2022/05/15 10:23:46;;;;;;;3.33;2.10;;;19.30;1.00;;;;;;6188375;28;20724;-56
2022/05/15 10:27:04;;;;;;;2.60;2.37;;;19.40;1.00;;;;;;6184623;28;20258;-55
2022/05/15 10:30:12;;;;;;;1.70;1.70;;;19.50;1.00;;;;;;6186436;28;20246;-55
2022/05/15 10:33:18;;;;;;;2.10;1.90;;;19.60;1.00;;;;;;6182300;28;21012;-55
2022/05/15 10:36:51;;;;;;;2.03;1.83;;;19.70;1.00;;;;;;6183111;28;20705;-56
2022/05/15 10:40:19;;;;;;;2.10;2.00;;;19.70;1.00;;;;;;6197043;28;20377;-56
2022/05/15 10:43:47;;;;;;;2.03;1.90;;;19.70;1.00;;;;;;6183838;28;20319;-56
2022/05/15 10:46:55;;;;;;;2.10;2.00;;;19.70;1.00;;;;;;6184216;28;20793;-55
2022/05/15 10:50:19;;;;;;;1.97;1.80;;;19.90;1.00;;;;;;6182854;28;20334;-55
2022/05/15 10:57:24;;;;;;;1.90;1.80;;;20.00;1.00;;;;;;6182569;28;20244;-55
2022/05/15 11:00:37;;;;;;;2.10;2.00;;;20.20;1.00;;;;;;6184408;28;20282;-54
2022/05/15 11:03:57;;;;;;;1.70;1.70;;;20.40;1.00;;;;;;6185162;28;20239;-54
2022/05/15 11:07:05;;;;;;;1.87;1.73;;;20.50;1.00;;;;;;6177665;28;20811;-59
2022/05/15 11:10:20;;;;;;;1.87;1.87;;;20.40;1.00;;;;;;6180114;28;20242;-54
2022/05/15 11:13:35;;;;;;;2.23;2.07;;;20.20;1.00;;;;;;6185938;28;20844;-57
2022/05/15 11:16:46;;;;;;;2.00;2.00;;;20.30;1.00;;;;;;6181270;28;20648;-54
2022/05/15 11:19:50;;;;;;;1.87;1.80;;;20.40;1.00;;;;;;6189079;28;20251;-56
2022/05/15 11:23:05;;;;;;;3.13;2.00;;;20.50;1.00;;;;;;6186771;28;20287;-54
2022/05/15 11:26:15;;;;;;;1.90;1.90;;;20.50;1.00;;;;;;6175543;28;20633;-57
2022/05/15 11:29:20;;;;;;;1.73;1.63;;;20.40;1.00;;;;;;6176775;28;20879;-55
2022/05/15 11:32:42;;;;;;;1.90;1.80;;;20.40;1.00;;;;;;6181419;28;20278;-55
2022/05/15 11:36:09;;;;;;;1.70;1.70;;;20.60;1.00;;;;;;6186581;28;20236;-55
2022/05/15 11:39:24;;;;;;;2.00;1.90;;;20.80;1.00;;;;;;6188808;28;20478;-54
2022/05/15 11:42:28;;;;;;;2.00;1.90;;;20.90;1.00;;;;;;6149334;28;20232;-54
2022/05/15 11:45:37;;;;;;;1.87;1.77;;;21.10;1.00;;;;;;6187326;28;20763;-54
2022/05/15 11:48:58;;;;;;;1.60;1.60;;;21.10;1.00;;;;;;6185640;28;20240;-54
2022/05/15 11:52:30;;;;;;;2.13;2.00;;;21.30;1.00;;;;;;6175292;28;20318;-56
2022/05/15 11:55:43;;;;;;;1.90;1.90;;;21.40;1.00;;;;;;6189159;28;20689;-55
2022/05/15 11:58:54;;;;;;;2.83;1.60;;;21.40;1.00;;;;;;6183906;28;20563;-54
2022/05/15 12:01:59;;;;;;;1.30;1.30;;;21.30;1.00;;;;;;6189166;28;20272;-55
2022/05/15 12:05:09;;;;;;;1.90;1.90;;;21.40;1.00;;;;;;6190391;28;20756;-55
2022/05/15 12:08:34;;;;;;;2.60;1.63;;;21.50;1.00;;;;;;6173996;28;20352;-53
2022/05/15 12:11:37;;;;;;;1.80;1.80;;;21.70;1.00;;;;;;6184607;28;20754;-56
2022/05/15 12:14:40;;;;;;;1.83;1.73;;;21.70;1.00;;;;;;6185853;28;20681;-55
2022/05/15 12:17:45;;;;;;;2.03;2.03;;;21.60;1.00;;;;;;6180842;28;20240;-56
2022/05/15 12:20:51;;;;;;;1.90;1.80;;;21.60;1.00;;;;;;6180923;28;20239;-55
2022/05/15 12:27:22;;;;;;;1.60;1.60;;;21.60;1.00;;;;;;6189357;28;20243;-55
2022/05/15 12:30:25;;;;;;;2.10;2.10;;;21.60;1.00;;;;;;6184738;28;20236;-56
2022/05/15 12:33:30;;;;;;;2.23;2.10;;;21.70;1.00;;;;;;6193342;28;20294;-55
2022/05/15 12:36:37;;;;;;;2.10;2.00;;;21.80;1.00;;;;;;6181401;28;20391;-57
2022/05/15 12:39:43;;;;;;;2.10;2.00;;;21.90;1.00;;;;;;6188326;28;20236;-56
2022/05/15 12:42:50;;;;;;;2.10;2.10;;;22.00;1.00;;;;;;6181716;28;20768;-54
2022/05/15 12:45:53;;;;;;;2.07;1.80;;;21.90;1.00;;;;;;6187840;28;20248;-55
2022/05/15 12:48:56;;;;;;;2.00;1.90;;;21.70;1.00;;;;;;6187972;28;20330;-54
2022/05/15 12:52:10;;;;;;;2.17;2.10;;;21.90;1.00;;;;;;6184544;28;20244;-55
2022/05/15 12:55:23;;;;;;;2.20;2.00;;;22.00;1.00;;;;;;6185818;28;20505;-55
2022/05/15 12:58:33;;;;;;;1.87;1.77;;;22.10;1.00;;;;;;6188133;28;20232;-56
2022/05/15 13:01:36;;;;;;;2.30;2.10;;;22.30;1.00;;;;;;6175150;28;20546;-55
2022/05/15 13:04:46;;;;;;;2.03;1.97;;;22.10;1.00;;;;;;6185769;28;20248;-56
2022/05/15 13:07:55;;;;;;;2.10;2.03;;;22.20;1.00;;;;;;6186361;28;20240;-55
2022/05/15 13:11:07;;;;;;;2.27;2.10;;;22.30;1.00;;;;;;6177030;28;20697;-54
2022/05/15 13:14:20;;;;;;;1.83;1.70;;;22.30;1.00;;;;;;6196478;28;20726;-55
2022/05/15 13:17:37;;;;;;;2.20;2.20;;;22.40;1.00;;;;;;6189690;28;20244;-56
2022/05/15 13:20:54;;;;;;;1.90;1.90;;;22.50;1.00;;;;;;6183080;28;20348;-56
2022/05/15 13:23:57;;;;;;;2.07;2.07;;;22.60;1.00;;;;;;6184255;28;20306;-56
2022/05/15 13:27:03;;;;;;;2.00;1.90;;;22.50;1.00;;;;;;6181521;28;20619;-56
2022/05/15 13:30:07;;;;;;;2.10;2.00;;;22.50;1.00;;;;;;6188127;28;20610;-54
2022/05/15 13:33:13;;;;;;;2.67;2.20;;;22.60;1.00;;;;;;6188150;28;20274;-55
2022/05/15 13:36:18;;;;;;;2.10;2.00;;;22.40;1.00;;;;;;6172892;28;20259;-55
2022/05/15 13:46:09;;;;;;;2.77;2.07;;;22.50;1.00;;;;;;6180002;28;20424;-55
2022/05/15 13:49:14;;;;;;;2.27;2.20;;;22.40;1.00;;;;;;6182960;28;20236;-56
2022/05/15 13:52:23;;;;;;;2.23;2.13;;;22.30;1.00;;;;;;6191167;28;20327;-57
2022/05/15 13:55:38;;;;;;;3.70;2.00;;;22.30;1.00;;;;;;6174038;28;20293;-54
2022/05/15 13:58:47;;;;;;;2.10;2.00;;;22.20;1.00;;;;;;6188083;28;20605;-56
2022/05/15 14:02:05;;;;;;;3.10;2.53;;;21.90;1.00;;;;;;6166711;28;20335;-55
2022/05/15 14:05:17;;;;;;;2.13;2.03;;;22.10;1.00;;;;;;6178098;28;20613;-55
2022/05/15 14:08:22;;;;;;;1.80;1.80;;;22.10;1.00;;;;;;6176600;28;20254;-55
2022/05/15 14:11:26;;;;;;;3.77;1.87;;;22.20;1.00;;;;;;6166824;28;20231;-55
2022/05/15 14:14:48;;;;;;;1.87;1.83;;;22.30;1.00;;;;;;6179999;28;20640;-55
2022/05/15 14:17:54;;;;;;;2.30;2.10;;;22.30;1.00;;;;;;6179778;28;20228;-55
2022/05/15 14:21:10;;;;;;;1.93;1.80;;;22.50;1.00;;;;;;6180333;28;20232;-56
2022/05/15 14:24:13;;;;;;;2.13;2.03;;;22.60;1.00;;;;;;6181280;28;20326;-56
2022/05/15 14:27:17;;;;;;;2.43;2.10;;;22.70;1.00;;;;;;6179003;28;20335;-55
2022/05/15 14:30:21;;;;;;;2.10;2.00;;;22.80;1.00;;;;;;6183615;28;20266;-54
2022/05/15 14:33:28;;;;;;;2.47;2.37;;;22.80;1.00;;;;;;6181191;28;20283;-55
2022/05/15 14:36:32;;;;;;;1.70;1.70;;;22.90;1.00;;;;;;6179162;28;20827;-55
2022/05/15 14:39:38;;;;;;;2.83;1.90;;;22.70;1.00;;;;;;6183078;28;20236;-55
2022/05/15 14:42:47;;;;;;;2.30;2.13;;;22.60;1.00;;;;;;6178536;28;20247;-55
2022/05/15 14:45:55;;;;;;;2.43;2.00;;;22.70;1.00;;;;;;6197852;28;20244;-55
2022/05/15 14:48:59;;;;;;;2.33;2.23;;;22.70;1.00;;;;;;6186992;28;20271;-56
2022/05/15 14:52:02;;;;;;;2.30;2.20;;;22.50;1.00;;;;;;6175175;28;20331;-54
2022/05/15 14:55:07;;;;;;;2.23;2.13;;;22.50;1.00;;;;;;6185412;28;20842;-54
2022/05/15 14:58:16;;;;;;;2.00;2.00;;;22.50;1.00;;;;;;6182033;28;20243;-56
2022/05/15 15:01:22;;;;;;;2.23;2.13;;;22.70;1.00;;;;;;6184838;28;20898;-55
2022/05/15 15:04:25;;;;;;;2.23;2.03;;;22.80;1.00;;;;;;6182587;28;20714;-55
2022/05/15 15:07:27;;;;;;;1.97;1.97;;;23.00;1.00;;;;;;6182646;28;20322;-55
2022/05/15 15:10:30;;;;;;;2.03;2.03;;;22.90;1.00;;;;;;6183356;28;20346;-54
2022/05/15 15:13:33;;;;;;;2.33;2.23;;;23.00;1.00;;;;;;6186726;28;20561;-55
2022/05/15 15:16:39;;;;;;;2.53;2.40;;;23.00;1.00;;;;;;6189466;28;20493;-54
2022/05/15 15:19:42;;;;;;;2.03;1.93;;;23.00;1.00;;;;;;6189499;28;20713;-55
2022/05/15 15:22:45;;;;;;;2.30;2.00;;;23.10;1.00;;;;;;6191393;28;20246;-55
2022/05/15 15:25:50;;;;;;;2.77;2.57;;;23.10;1.00;;;;;;6190308;28;20642;-55
2022/05/15 15:28:52;;;;;;;2.43;2.23;;;23.20;1.00;;;;;;6198464;28;20673;-56
2022/05/15 15:31:57;;;;;;;2.13;2.13;;;23.10;1.00;;;;;;6189216;28;20240;-56
2022/05/15 15:34:59;;;;;;;1.97;1.93;;;22.90;1.00;;;;;;6184075;28;20562;-55
2022/05/15 15:38:19;;;;;;;2.53;2.33;;;22.90;1.00;;;;;;6188611;28;20756;-55
2022/05/15 15:41:22;;;;;;;2.43;1.73;;;23.00;1.00;;;;;;6187391;28;20236;-55
2022/05/15 15:44:25;;;;;;;2.40;1.80;;;23.10;1.00;;;;;;6193260;28;20235;-55
2022/05/15 15:47:29;;;;;;;2.27;2.23;;;23.20;1.00;;;;;;6193457;28;20262;-56
2022/05/15 15:50:32;;;;;;;2.43;2.23;;;23.40;1.00;;;;;;6185610;28;20240;-56
2022/05/15 15:53:35;;;;;;;2.20;2.10;;;23.40;1.00;;;;;;6185673;28;20278;-56
2022/05/15 15:56:40;;;;;;;2.67;2.57;;;23.40;1.00;;;;;;6183536;28;20236;-55
2022/05/15 15:59:43;;;;;;;2.37;2.27;;;23.40;1.00;;;;;;6185234;28;20302;-57
2022/05/15 16:02:47;;;;;;;2.40;2.30;;;23.20;1.00;;;;;;6186753;28;20319;-56
2022/05/15 16:05:54;;;;;;;2.07;1.70;;;23.20;1.00;;;;;;6189223;28;20303;-56
2022/05/15 16:08:57;;;;;;;2.17;2.07;;;23.10;1.00;;;;;;6185366;28;20448;-55
2022/05/15 16:12:00;;;;;;;2.27;2.17;;;23.10;1.00;;;;;;6184633;28;20240;-56
2022/05/15 16:15:24;;;;;;;2.23;2.13;;;23.00;1.00;;;;;;6187069;28;20283;-56
2022/05/15 16:18:28;;;;;;;2.10;2.07;;;22.90;1.00;;;;;;6186631;28;20743;-55
2022/05/15 16:21:36;;;;;;;1.83;1.70;;;22.80;1.00;;;;;;6180561;28;20239;-55
2022/05/15 16:24:42;;;;;;;3.57;2.50;;;22.70;1.00;;;;;;6185495;28;20379;-56
2022/05/15 16:27:47;;;;;;;2.40;2.13;;;22.50;1.00;;;;;;6175587;28;20276;-54
2022/05/15 16:30:53;;;;;;;2.20;2.10;;;22.40;1.00;;;;;;6193607;28;20316;-55
2022/05/15 16:34:08;;;;;;;2.23;2.13;;;22.30;1.00;;;;;;6197423;28;20544;-56
2022/05/15 16:37:12;;;;;;;3.57;2.50;;;22.20;1.00;;;;;;6175037;28;20284;-56
2022/05/15 16:40:17;;;;;;;2.07;1.97;;;22.00;1.00;;;;;;6199674;28;20693;-56
2022/05/15 16:43:22;;;;;;;2.30;2.20;;;21.90;1.00;;;;;;6191611;28;20232;-56
2022/05/15 16:46:25;;;;;;;6.10;2.50;;;21.80;1.00;;;;;;6188985;28;20239;-56
2022/05/15 16:49:30;;;;;;;1.83;1.80;;;21.70;1.00;;;;;;6185500;28;20787;-55
2022/05/15 16:52:33;;;;;;;1.93;1.93;;;21.60;1.00;;;;;;6189481;28;20391;-54